Time;durP1;ratioP1;P1;durP2;ratioP2;P2;SDS_P1;SDS_P2;PMS_P1;PMS_P2;Temp;Humidity;BMP_temperature;BMP_pressure;BME280_temperature;BME280_humidity;BME280_pressure;Samples;Min_cycle;Max_cycle;Signal;HPM_P1;HPM_P2
2022/10/12 00:01:49;;;;;;;3.95;1.27;;;;;;;8.87;63.13;101176.69;10447373;28;20152;-74
2022/10/12 00:06:50;;;;;;;3.60;1.10;;;;;;;8.85;63.57;101174.16;10449421;28;20074;-70
2022/10/12 00:11:52;;;;;;;7.60;2.13;;;;;;;8.83;63.38;101173.44;10436261;28;20136;-73
2022/10/12 00:16:53;;;;;;;8.80;1.30;;;;;;;8.83;63.23;101175.28;10433940;28;20071;-72
2022/10/12 00:21:54;;;;;;;11.80;2.13;;;;;;;8.81;63.83;101186.16;10427848;28;20068;-66
2022/10/12 00:26:56;;;;;;;9.82;2.17;;;;;;;8.76;64.00;101177.69;10453117;28;20101;-75
2022/10/12 00:31:57;;;;;;;4.93;2.33;;;;;;;8.72;63.53;101176.28;10449778;28;20037;-71
2022/10/12 00:36:59;;;;;;;13.50;3.08;;;;;;;8.61;63.74;101181.78;10454065;28;20128;-75
2022/10/12 00:42:00;;;;;;;6.25;1.85;;;;;;;8.53;64.60;101178.00;10448613;28;20082;-73
2022/10/12 00:47:13;;;;;;;7.88;1.80;;;;;;;8.47;64.21;101173.22;10433037;28;20045;-75
2022/10/12 00:52:18;;;;;;;7.15;1.98;;;;;;;8.46;64.38;101168.00;10451515;28;20185;-71
2022/10/12 00:57:21;;;;;;;6.78;1.58;;;;;;;8.43;64.32;101162.91;10446462;28;20123;-75
2022/10/12 01:02:26;;;;;;;8.23;1.58;;;;;;;8.42;64.43;101167.44;10425952;28;20121;-74
2022/10/12 01:07:28;;;;;;;6.60;1.70;;;;;;;8.39;64.87;101167.66;10431653;28;20491;-75
2022/10/12 01:12:30;;;;;;;5.82;1.50;;;;;;;8.44;64.59;101173.50;10449239;28;20045;-75
2022/10/12 01:17:42;;;;;;;3.88;1.60;;;;;;;8.47;63.90;101169.66;10428802;28;20044;-74
2022/10/12 01:23:03;;;;;;;7.85;2.13;;;;;;;8.50;64.13;101164.03;10446088;28;20068;-73
2022/10/12 01:28:18;;;;;;;5.65;1.73;;;;;;;8.50;64.01;101169.41;10449861;28;20071;-70
2022/10/12 01:33:30;;;;;;;7.13;1.58;;;;;;;8.42;65.03;101164.75;10425211;28;20045;-74
2022/10/12 01:38:40;;;;;;;7.82;2.00;;;;;;;8.42;64.25;101167.44;10445060;28;20051;-74
2022/10/12 01:43:43;;;;;;;4.20;1.88;;;;;;;8.43;64.08;101173.63;10444718;28;20080;-75
2022/10/12 01:48:47;;;;;;;8.65;2.65;;;;;;;8.40;64.26;101165.84;10446884;28;20048;-71
2022/10/12 01:54:07;;;;;;;6.30;2.03;;;;;;;8.39;64.08;101166.81;10446736;28;20083;-75
2022/10/12 01:59:28;;;;;;;7.90;1.83;;;;;;;8.33;64.18;101157.53;10443968;28;20068;-75
2022/10/12 02:04:38;;;;;;;6.80;1.73;;;;;;;8.28;65.07;101157.13;10411171;28;20123;-69
2022/10/12 02:09:40;;;;;;;6.20;1.70;;;;;;;8.24;64.58;101145.00;10446242;28;20495;-74
2022/10/12 02:14:46;;;;;;;7.47;2.03;;;;;;;8.11;64.92;101143.41;10447807;28;20108;-74
2022/10/12 02:19:57;;;;;;;7.22;2.38;;;;;;;8.12;64.72;101144.28;10446244;28;20075;-72
2022/10/12 02:25:00;;;;;;;9.20;2.03;;;;;;;8.08;64.82;101140.19;10446584;28;20122;-73
2022/10/12 02:30:02;;;;;;;5.53;2.30;;;;;;;8.02;64.92;101138.94;10445175;28;20550;-74
2022/10/12 02:35:09;;;;;;;10.35;2.65;;;;;;;8.04;65.35;101133.44;10439863;28;20044;-72
2022/10/12 02:40:33;;;;;;;7.47;2.15;;;;;;;8.02;64.93;101127.38;10442100;28;20080;-72
2022/10/12 02:45:37;;;;;;;7.38;1.70;;;;;;;7.91;65.54;101121.16;10425633;28;20056;-74
2022/10/12 02:50:39;;;;;;;9.15;1.88;;;;;;;7.85;64.85;101119.03;10446661;28;20064;-74
2022/10/12 02:56:09;;;;;;;7.13;2.38;;;;;;;7.78;65.82;101125.94;10452919;28;20045;-75
2022/10/12 03:01:13;;;;;;;5.45;2.05;;;;;;;7.77;65.89;101121.56;10434220;28;20099;-76
2022/10/12 03:06:14;;;;;;;8.07;2.85;;;;;;;7.74;66.02;101122.69;10450562;28;20064;-72
2022/10/12 03:11:16;;;;;;;7.65;2.92;;;;;;;7.74;65.94;101119.16;10419693;28;20456;-73
2022/10/12 03:16:17;;;;;;;4.88;1.98;;;;;;;7.69;65.39;101122.25;10449966;28;20522;-74
2022/10/12 03:21:18;;;;;;;9.25;2.58;;;;;;;7.65;65.96;101123.50;10451205;28;20066;-74
2022/10/12 03:26:20;;;;;;;5.80;1.83;;;;;;;7.71;66.37;101122.97;10453151;28;20072;-72
2022/10/12 03:31:21;;;;;;;5.43;1.80;;;;;;;7.68;65.53;101117.91;10454365;28;20124;-73
2022/10/12 03:36:22;;;;;;;6.38;1.80;;;;;;;7.64;65.56;101112.94;10433510;28;20523;-74
2022/10/12 03:41:24;;;;;;;9.70;2.58;;;;;;;7.57;66.22;101126.03;10418205;28;20432;-76
2022/10/12 03:46:25;;;;;;;6.45;2.45;;;;;;;7.55;66.20;101109.28;10449124;28;20076;-72
2022/10/12 03:51:27;;;;;;;8.18;3.15;;;;;;;7.57;66.46;101120.69;10444882;28;20314;-71
2022/10/12 03:56:28;;;;;;;7.88;2.20;;;;;;;7.59;65.40;101117.88;10455242;28;20064;-74
2022/10/12 04:01:29;;;;;;;10.43;1.95;;;;;;;7.58;65.64;101117.00;10448897;28;20128;-73
2022/10/12 04:06:31;;;;;;;10.05;2.33;;;;;;;7.52;65.52;101125.59;10447394;28;20040;-75
2022/10/12 04:11:32;;;;;;;6.63;2.10;;;;;;;7.46;65.84;101126.97;10445855;28;20072;-73
2022/10/12 04:16:34;;;;;;;12.20;2.92;;;;;;;7.45;65.90;101133.31;10445582;28;20041;-74
2022/10/12 04:21:35;;;;;;;6.03;1.95;;;;;;;7.35;66.21;101129.78;10429820;28;20127;-74
2022/10/12 04:26:36;;;;;;;8.45;2.80;;;;;;;7.32;66.07;101116.66;10443878;28;20099;-73
2022/10/12 04:31:39;;;;;;;6.82;2.08;;;;;;;7.30;65.94;101124.81;10443322;28;20072;-72
2022/10/12 04:36:40;;;;;;;5.57;2.13;;;;;;;7.28;66.28;101121.44;10427804;28;20073;-75
2022/10/12 04:41:42;;;;;;;5.20;2.22;;;;;;;7.27;66.44;101118.91;10426040;28;20282;-75
2022/10/12 04:46:43;;;;;;;6.50;3.03;;;;;;;7.33;66.19;101131.75;10441955;28;20043;-75
2022/10/12 04:51:44;;;;;;;6.15;2.05;;;;;;;7.34;66.16;101128.06;10442526;28;20072;-75
2022/10/12 04:56:46;;;;;;;7.60;2.00;;;;;;;7.29;66.63;101133.00;10442626;28;20072;-73
2022/10/12 05:01:49;;;;;;;5.10;2.30;;;;;;;7.32;66.48;101130.88;10439055;28;20045;-71
2022/10/12 05:06:50;;;;;;;13.50;2.58;;;;;;;7.39;65.79;101131.19;10424414;28;20064;-72
2022/10/12 05:11:52;;;;;;;10.77;2.58;;;;;;;7.38;66.39;101132.16;10430872;28;20057;-74
2022/10/12 05:16:53;;;;;;;4.68;1.67;;;;;;;7.39;66.61;101135.72;10425815;28;20069;-72
2022/10/12 05:21:55;;;;;;;7.90;2.25;;;;;;;7.43;66.26;101135.28;10434862;28;20048;-68
2022/10/12 05:26:56;;;;;;;9.25;2.13;;;;;;;7.41;65.83;101134.56;10443545;28;20037;-71
2022/10/12 05:31:58;;;;;;;6.70;1.88;;;;;;;7.40;66.36;101135.53;10440419;28;20041;-74
2022/10/12 05:37:00;;;;;;;7.88;2.15;;;;;;;7.37;66.43;101132.31;10441168;28;20108;-74
2022/10/12 05:42:02;;;;;;;8.85;2.45;;;;;;;7.42;66.32;101130.06;10445273;28;20053;-67
2022/10/12 05:47:04;;;;;;;9.38;2.60;;;;;;;7.48;66.54;101129.53;10413743;28;20080;-67
2022/10/12 05:52:05;;;;;;;8.18;2.40;;;;;;;7.51;66.08;101126.59;10439432;28;20139;-66
2022/10/12 05:57:06;;;;;;;7.00;2.30;;;;;;;7.48;66.50;101127.69;10443595;28;20154;-66
2022/10/12 06:02:17;;;;;;;6.70;2.55;;;;;;;7.36;66.52;101126.09;10443540;28;20086;-66
2022/10/12 06:07:18;;;;;;;10.65;2.53;;;;;;;7.37;66.03;101132.31;10440893;28;20095;-66
2022/10/12 06:12:20;;;;;;;7.55;2.13;;;;;;;7.38;66.15;101128.66;10440353;28;20064;-66
2022/10/12 06:17:21;;;;;;;9.98;2.60;;;;;;;7.42;66.42;101127.41;10440260;28;20041;-67
2022/10/12 06:22:23;;;;;;;8.52;2.88;;;;;;;7.45;66.59;101125.28;10433980;28;20162;-67
2022/10/12 06:27:24;;;;;;;7.88;2.40;;;;;;;7.51;66.55;101130.09;10440747;28;20061;-66
2022/10/12 06:32:25;;;;;;;10.50;3.65;;;;;;;7.53;66.18;101128.13;10448689;28;20132;-66
2022/10/12 06:37:28;;;;;;;5.97;2.40;;;;;;;7.51;66.91;101134.59;10445410;28;20072;-66
2022/10/12 06:42:49;;;;;;;8.82;2.65;;;;;;;7.60;66.72;101132.94;10447168;28;20049;-66
2022/10/12 06:47:57;;;;;;;5.00;2.15;;;;;;;7.71;66.79;101127.47;10445881;28;20041;-67
2022/10/12 06:52:59;;;;;;;8.40;2.45;;;;;;;7.76;66.36;101130.59;10447101;28;20063;-66
2022/10/12 06:58:00;;;;;;;11.10;2.45;;;;;;;7.89;66.06;101131.16;10430114;28;20556;-66
2022/10/12 07:03:02;;;;;;;16.67;3.60;;;;;;;8.01;66.41;101128.34;10451123;28;20060;-66
2022/10/12 07:08:04;;;;;;;7.78;2.70;;;;;;;8.08;66.95;101133.00;10448497;28;20045;-66
2022/10/12 07:13:05;;;;;;;10.68;2.45;;;;;;;8.19;66.61;101131.16;10449426;28;20127;-67
2022/10/12 07:18:06;;;;;;;6.85;2.38;;;;;;;8.40;66.71;101131.88;10449251;28;20068;-67
2022/10/12 07:23:08;;;;;;;6.65;2.22;;;;;;;8.46;66.97;101130.47;10446830;28;20041;-67
2022/10/12 07:28:09;;;;;;;10.55;2.35;;;;;;;8.61;66.49;101131.75;10446525;28;20048;-67
2022/10/12 07:33:11;;;;;;;6.18;2.05;;;;;;;8.86;66.19;101138.28;10445719;28;20545;-66
2022/10/12 07:38:12;;;;;;;5.18;2.40;;;;;;;9.03;66.63;101131.34;10445707;28;20079;-66
2022/10/12 07:43:14;;;;;;;14.50;2.75;;;;;;;9.20;66.18;101135.09;10446577;28;20045;-66
2022/10/12 07:48:18;;;;;;;9.25;2.95;;;;;;;9.42;66.29;101133.84;10448224;28;20047;-66
2022/10/12 07:53:20;;;;;;;6.00;2.20;;;;;;;9.57;66.54;101139.56;10446900;28;20076;-67
2022/10/12 07:58:22;;;;;;;8.82;2.80;;;;;;;9.76;65.99;101135.91;10444940;28;20482;-66
2022/10/12 08:03:23;;;;;;;9.98;2.30;;;;;;;10.00;65.74;101142.53;10445479;28;20051;-66
2022/10/12 08:08:25;;;;;;;6.40;2.72;;;;;;;10.17;65.96;101143.53;10447821;28;20049;-67
2022/10/12 08:13:26;;;;;;;11.73;3.40;;;;;;;10.38;65.86;101143.25;10445440;28;20048;-67
2022/10/12 08:18:29;;;;;;;10.43;2.85;;;;;;;10.56;65.60;101138.69;10425550;28;20041;-67
2022/10/12 08:23:31;;;;;;;8.57;3.22;;;;;;;10.75;65.60;101140.34;10445323;28;20048;-67
2022/10/12 08:28:33;;;;;;;9.43;2.97;;;;;;;10.96;65.48;101140.00;10445474;28;20043;-67
2022/10/12 08:33:34;;;;;;;7.88;2.30;;;;;;;11.17;65.34;101130.66;10444670;28;20037;-67
2022/10/12 08:38:41;;;;;;;9.15;3.05;;;;;;;11.40;65.10;101122.88;10445804;28;20788;-66
2022/10/12 08:44:05;;;;;;;6.70;2.08;;;;;;;11.54;64.92;101122.25;10442973;28;20045;-66
2022/10/12 08:49:18;;;;;;;8.63;2.25;;;;;;;11.84;64.45;101112.72;10442445;28;20064;-67
2022/10/12 08:54:24;;;;;;;5.95;2.55;;;;;;;12.07;63.96;101118.34;10439349;28;20127;-66
2022/10/12 08:59:28;;;;;;;6.35;2.65;;;;;;;12.22;64.01;101132.03;10439311;28;20127;-65
2022/10/12 09:04:48;;;;;;;12.77;3.75;;;;;;;12.49;63.09;101120.03;10440200;28;20069;-66
2022/10/12 09:10:13;;;;;;;8.75;2.03;;;;;;;12.68;62.94;101121.53;10437886;28;20077;-66
2022/10/12 09:15:21;;;;;;;10.85;2.85;;;;;;;12.88;62.39;101123.88;10439615;28;20081;-67
2022/10/12 09:20:22;;;;;;;;;;;;;;;13.04;62.50;101120.28;10441215;28;20075;-68
2022/10/12 09:25:27;;;;;;;6.65;1.15;;;;;;;13.22;62.19;101120.06;10437958;28;19928;-65
2022/10/12 09:30:29;;;;;;;7.82;2.25;;;;;;;13.44;61.88;101113.91;10440219;28;20568;-66
2022/10/12 09:35:31;;;;;;;5.25;1.98;;;;;;;13.59;61.19;101108.63;10437176;28;20136;-67
2022/10/12 09:40:33;;;;;;;9.48;2.60;;;;;;;13.79;61.19;101110.88;10446048;28;20502;-67
2022/10/12 09:45:34;;;;;;;10.20;2.30;;;;;;;13.93;60.66;101098.47;10442176;28;20079;-67
2022/10/12 09:50:46;;;;;;;6.18;2.25;;;;;;;14.13;60.47;101096.13;10442395;28;20076;-67
2022/10/12 09:55:54;;;;;;;9.75;2.90;;;;;;;14.35;59.78;101100.66;10439423;28;20688;-67
2022/10/12 10:01:20;;;;;;;11.60;2.70;;;;;;;14.57;59.64;101092.72;10441316;28;20123;-68
2022/10/12 10:06:24;;;;;;;11.32;2.42;;;;;;;14.75;59.44;101095.94;10437947;28;20053;-67
2022/10/12 10:11:29;;;;;;;8.95;2.60;;;;;;;14.83;59.17;101097.69;10441241;28;20364;-67
2022/10/12 10:16:31;;;;;;;8.38;3.42;;;;;;;15.14;58.68;101078.53;10439733;28;20124;-67
2022/10/12 10:21:34;;;;;;;5.55;2.25;;;;;;;15.40;58.33;101074.50;10442065;28;20114;-68
2022/10/12 10:26:56;;;;;;;8.80;2.55;;;;;;;15.57;58.00;101072.41;10438800;28;20124;-68
2022/10/12 10:32:14;;;;;;;9.52;2.50;;;;;;;15.64;57.86;101071.47;10441719;28;20052;-68
2022/10/12 10:37:21;;;;;;;9.05;3.20;;;;;;;15.94;57.02;101073.25;10439915;28;20220;-71
2022/10/12 10:42:29;;;;;;;7.20;3.22;;;;;;;16.19;56.85;101077.25;10440574;28;20037;-70
2022/10/12 10:47:31;;;;;;;;;;;;;;;16.31;57.30;101066.72;10404590;28;20081;-71
2022/10/12 10:52:35;;;;;;;12.88;3.58;;;;;;;16.54;56.55;101066.44;10438647;28;19979;-70
2022/10/12 10:57:41;;;;;;;10.93;3.67;;;;;;;16.66;56.34;101056.72;10447461;28;20033;-73
2022/10/12 11:02:58;;;;;;;8.38;3.55;;;;;;;16.90;55.49;101054.59;10426444;28;20057;-70
2022/10/12 11:08:19;;;;;;;9.33;4.80;;;;;;;17.17;55.43;101047.44;10436137;28;20079;-68
2022/10/12 11:13:35;;;;;;;10.63;3.97;;;;;;;17.39;55.29;101041.88;10437886;28;20136;-67
2022/10/12 11:19:17;;;;;;;12.27;4.82;;;;;;;17.51;54.91;101034.78;10446767;28;20124;-68
2022/10/12 11:24:25;;;;;;;10.02;4.07;;;;;;;17.63;54.80;101033.16;10431895;28;20126;-69
2022/10/12 11:29:27;;;;;;;12.57;5.90;;;;;;;17.99;54.09;101026.56;10425812;28;20041;-69
2022/10/12 11:34:45;;;;;;;8.55;4.32;;;;;;;18.23;53.80;101021.53;10445602;28;20515;-69
2022/10/12 11:39:50;;;;;;;10.82;4.93;;;;;;;18.50;53.00;101016.03;10447585;28;20941;-67
2022/10/12 11:44:53;;;;;;;10.80;5.25;;;;;;;18.67;52.78;101006.38;10443312;28;20107;-68
2022/10/12 11:49:59;;;;;;;11.68;5.65;;;;;;;19.00;52.31;101003.59;10427031;28;20072;-70
2022/10/12 11:55:37;;;;;;;15.98;8.48;;;;;;;19.24;51.70;100995.72;10438528;28;20072;-69
2022/10/12 12:00:53;;;;;;;12.77;5.97;;;;;;;19.58;51.13;100993.63;10442916;28;20056;-68
2022/10/12 12:05:55;;;;;;;10.07;4.60;;;;;;;19.83;50.86;100988.25;10446814;28;20939;-69
2022/10/12 12:11:16;;;;;;;7.95;4.50;;;;;;;19.97;50.38;100972.59;10466092;28;20041;-73
2022/10/12 12:16:18;;;;;;;10.43;5.25;;;;;;;20.19;50.30;100975.75;10468396;28;20044;-73
2022/10/12 12:21:19;;;;;;;9.63;4.97;;;;;;;20.38;49.76;100966.53;10456950;28;20049;-72
2022/10/12 12:26:27;;;;;;;14.82;5.32;;;;;;;20.68;49.08;100965.00;10458213;28;20073;-72
2022/10/12 12:31:29;;;;;;;14.18;5.65;;;;;;;21.02;48.35;100952.59;10462102;28;20041;-72
2022/10/12 12:36:33;;;;;;;12.85;4.75;;;;;;;21.30;47.73;100956.63;10470236;28;20037;-71
2022/10/12 12:41:50;;;;;;;14.80;5.10;;;;;;;21.12;47.91;100950.13;10440325;28;20041;-73
2022/10/12 12:47:00;;;;;;;9.85;5.53;;;;;;;21.41;48.02;100950.38;10451117;28;20128;-73
2022/10/12 12:52:12;;;;;;;8.93;4.75;;;;;;;21.24;47.71;100949.34;10454661;28;20052;-72
2022/10/12 12:57:51;;;;;;;9.55;5.28;;;;;;;21.27;47.63;100951.59;10450154;28;20072;-72
2022/10/12 13:03:21;;;;;;;10.52;4.80;;;;;;;21.42;47.10;100949.28;10370828;28;20040;-71
2022/10/12 13:08:33;;;;;;;16.23;5.03;;;;;;;21.62;46.71;100948.19;10469325;28;20044;-71
2022/10/12 13:13:57;;;;;;;15.38;4.78;;;;;;;21.81;46.23;100946.22;10455836;28;20049;-72
2022/10/12 13:19:04;;;;;;;8.60;5.18;;;;;;;21.91;46.56;100935.50;10442577;28;20079;-72
2022/10/12 13:24:18;;;;;;;15.63;5.45;;;;;;;22.11;46.30;100932.41;10460246;28;20510;-72
2022/10/12 13:29:50;;;;;;;14.75;5.85;;;;;;;22.29;45.56;100918.59;10459083;28;20041;-73
2022/10/12 13:34:55;;;;;;;16.20;6.90;;;;;;;22.23;45.58;100916.78;10465079;28;20041;-71
2022/10/12 13:39:57;;;;;;;14.43;6.32;;;;;;;22.00;46.05;100925.88;10566922;22;20042;-72
2022/10/12 13:45:00;;;;;;;16.02;5.57;;;;;;;21.91;46.16;100916.34;10434960;28;20056;-72
2022/10/12 13:50:14;;;;;;;10.32;6.32;;;;;;;21.92;45.59;100917.97;10398998;28;20052;-73
2022/10/12 13:55:16;;;;;;;12.18;5.28;;;;;;;21.82;46.26;100915.00;10403126;28;20451;-74
2022/10/12 14:00:20;;;;;;;12.13;6.18;;;;;;;21.87;46.22;100910.50;10416084;28;20392;-71
2022/10/12 14:05:24;;;;;;;16.88;6.13;;;;;;;21.75;46.38;100895.97;10408854;28;20064;-72
2022/10/12 14:10:31;;;;;;;14.55;4.72;;;;;;;21.45;46.50;100890.59;10403796;28;20041;-71
2022/10/12 14:15:35;;;;;;;10.32;4.53;;;;;;;21.30;46.85;100907.41;10409849;28;20064;-71
2022/10/12 14:20:38;;;;;;;14.75;5.30;;;;;;;21.00;47.44;100909.06;10449781;28;20096;-73
2022/10/12 14:25:54;;;;;;;15.52;6.45;;;;;;;20.83;47.84;100901.75;10451441;28;20056;-75
2022/10/12 14:30:56;;;;;;;13.97;7.47;;;;;;;21.00;47.78;100903.59;10448894;28;20102;-71
2022/10/12 14:36:19;;;;;;;11.90;5.13;;;;;;;20.77;47.90;100887.97;10458405;28;20071;-73
2022/10/12 14:41:36;;;;;;;11.98;5.13;;;;;;;20.70;48.77;100887.19;10446558;28;20075;-73
2022/10/12 14:46:40;;;;;;;12.88;5.65;;;;;;;20.87;48.55;100881.09;10454657;28;20060;-74
2022/10/12 14:51:42;;;;;;;10.65;5.40;;;;;;;20.89;48.28;100868.03;10472249;28;20361;-74
2022/10/12 14:56:43;;;;;;;15.43;5.30;;;;;;;20.88;48.65;100864.47;10494562;28;20391;-72
2022/10/12 15:01:45;;;;;;;12.18;5.38;;;;;;;20.79;48.88;100863.13;10473121;28;20060;-74
2022/10/12 15:06:51;;;;;;;19.92;8.05;;;;;;;20.75;49.16;100860.03;10478607;28;20029;-74
2022/10/12 15:11:53;;;;;;;16.25;5.13;;;;;;;20.77;49.06;100878.91;10479064;28;20033;-73
2022/10/12 15:16:56;;;;;;;9.80;5.97;;;;;;;20.59;49.43;100875.13;10501072;22;20037;-73
2022/10/12 15:21:58;;;;;;;14.38;5.22;;;;;;;20.45;49.71;100883.69;10611617;22;20054;-74
2022/10/12 15:26:59;;;;;;;12.38;7.07;;;;;;;20.33;50.27;100873.53;11502637;22;20037;-73
2022/10/12 15:32:01;;;;;;;19.02;6.75;;;;;;;20.30;50.22;100871.28;10432642;28;20038;-74
2022/10/12 15:37:02;;;;;;;13.60;6.70;;;;;;;20.08;50.75;100864.56;10421041;28;20052;-71
2022/10/12 15:42:10;;;;;;;15.75;6.32;;;;;;;19.99;50.97;100861.31;10441580;28;20090;-74
2022/10/12 15:47:12;;;;;;;11.82;5.85;;;;;;;19.90;51.44;100860.75;10404982;28;20081;-75
2022/10/12 15:52:16;;;;;;;11.90;6.43;;;;;;;19.83;51.70;100856.44;10401663;28;21133;-73
2022/10/12 15:57:17;;;;;;;14.52;7.07;;;;;;;19.65;51.95;100849.88;10419212;28;20041;-73
2022/10/12 16:02:26;;;;;;;15.23;6.18;;;;;;;19.64;52.08;100847.34;10394117;28;20045;-73
2022/10/12 16:07:27;;;;;;;13.85;6.90;;;;;;;19.60;52.22;100845.06;10415357;28;20061;-73
2022/10/12 16:12:29;;;;;;;11.95;6.32;;;;;;;19.51;52.30;100842.84;10415281;28;20042;-72
2022/10/12 16:17:30;;;;;;;17.55;8.93;;;;;;;19.42;52.59;100828.66;10424384;28;20077;-73
2022/10/12 16:22:32;;;;;;;12.88;7.70;;;;;;;19.31;52.87;100834.84;10452632;28;20069;-72
2022/10/12 16:27:33;;;;;;;18.98;9.02;;;;;;;19.08;53.31;100836.28;10451829;28;20056;-73
2022/10/12 16:32:35;;;;;;;16.17;7.50;;;;;;;18.95;53.67;100833.63;10454767;28;20045;-72
2022/10/12 16:37:36;;;;;;;13.45;7.95;;;;;;;18.86;53.82;100840.38;10451434;28;20498;-72
2022/10/12 16:42:38;;;;;;;14.50;8.10;;;;;;;18.74;54.32;100846.50;10480558;28;20033;-72
2022/10/12 16:47:40;;;;;;;17.10;7.97;;;;;;;18.59;54.69;100844.06;10460878;28;20067;-73
2022/10/12 16:52:43;;;;;;;16.65;8.65;;;;;;;18.41;54.89;100850.22;10462078;28;20100;-72
2022/10/12 16:57:45;;;;;;;19.52;9.43;;;;;;;18.23;55.67;100847.34;10443858;28;20561;-65
2022/10/12 17:02:47;;;;;;;21.13;10.50;;;;;;;18.06;56.28;100854.31;10452377;28;20108;-69
2022/10/12 17:07:48;;;;;;;16.13;8.35;;;;;;;17.91;56.64;100846.38;10447246;28;20041;-69
2022/10/12 17:12:50;;;;;;;17.05;9.63;;;;;;;17.76;57.10;100843.88;10425522;28;20726;-69
2022/10/12 17:17:52;;;;;;;19.30;9.63;;;;;;;17.60;57.76;100862.28;10442286;28;20123;-70
2022/10/12 17:22:54;;;;;;;19.20;8.68;;;;;;;17.45;58.01;100862.47;10422806;28;20029;-68
2022/10/12 17:27:55;;;;;;;25.85;14.50;;;;;;;17.32;58.44;100864.34;10444357;28;20040;-69
2022/10/12 17:32:57;;;;;;;28.73;15.25;;;;;;;17.22;58.64;100853.94;10440038;28;20136;-68
2022/10/12 17:37:58;;;;;;;28.90;14.15;;;;;;;17.11;58.92;100854.53;10422137;28;20474;-67
2022/10/12 17:42:59;;;;;;;22.98;14.25;;;;;;;17.01;59.25;100861.19;10435264;28;20133;-67
2022/10/12 17:48:01;;;;;;;21.45;13.95;;;;;;;16.92;59.62;100865.13;10441394;28;20127;-67
2022/10/12 17:53:02;;;;;;;16.80;12.15;;;;;;;16.83;59.89;100864.50;10440896;28;20562;-67
2022/10/12 17:58:04;;;;;;;24.42;13.77;;;;;;;16.78;59.90;100863.41;10440817;28;20491;-70
2022/10/12 18:03:05;;;;;;;26.30;12.80;;;;;;;16.68;60.44;100861.06;10420466;28;20051;-68
2022/10/12 18:08:07;;;;;;;22.25;12.90;;;;;;;16.59;60.50;100852.28;10419787;28;20120;-68
2022/10/12 18:13:08;;;;;;;18.88;10.00;;;;;;;16.52;60.74;100850.56;10441453;28;20137;-68
2022/10/12 18:18:10;;;;;;;14.23;9.93;;;;;;;16.38;60.91;100858.66;10440525;28;20128;-71
2022/10/12 18:23:16;;;;;;;18.90;10.85;;;;;;;16.25;61.14;100851.31;10421945;28;20099;-71
2022/10/12 18:28:17;;;;;;;17.42;11.30;;;;;;;16.16;61.42;100851.66;10451248;28;20573;-73
2022/10/12 18:33:19;;;;;;;28.73;12.10;;;;;;;16.04;61.80;100862.25;10450651;28;20041;-73
2022/10/12 18:38:20;;;;;;;22.83;11.43;;;;;;;15.86;62.23;100852.72;10436149;28;20133;-75
2022/10/12 18:43:21;;;;;;;20.73;11.45;;;;;;;15.75;62.59;100860.56;10450097;28;20120;-73
2022/10/12 18:48:23;;;;;;;20.23;11.35;;;;;;;15.72;62.52;100856.38;10458668;28;20040;-72
2022/10/12 18:53:26;;;;;;;20.25;11.05;;;;;;;15.64;62.68;100851.09;10451099;28;20097;-68
2022/10/12 18:58:28;;;;;;;20.98;10.63;;;;;;;15.44;63.24;100856.34;10449531;28;20607;-71
2022/10/12 19:03:30;;;;;;;23.40;11.20;;;;;;;15.33;63.55;100846.88;10452299;28;20045;-70
2022/10/12 19:08:31;;;;;;;19.67;10.27;;;;;;;15.29;63.41;100852.88;10457948;28;20041;-67
2022/10/12 19:13:36;;;;;;;23.40;10.90;;;;;;;15.21;63.58;100845.72;10460111;28;20056;-66
2022/10/12 19:18:38;;;;;;;20.90;10.40;;;;;;;15.14;63.72;100853.78;10472182;28;20036;-68
2022/10/12 19:23:42;;;;;;;21.02;10.65;;;;;;;15.05;63.46;100846.84;10489852;22;20040;-89
2022/10/12 19:28:45;;;;;;;29.17;15.88;;;;;;;14.90;63.68;100855.00;10458042;28;20401;-89
2022/10/12 19:33:49;;;;;;;31.90;15.38;;;;;;;14.75;64.24;100865.88;10450476;28;20329;-89
2022/10/12 19:38:57;;;;;;;29.42;14.25;;;;;;;14.62;64.43;100863.84;10473959;28;20041;-89
2022/10/12 19:44:00;;;;;;;31.25;15.63;;;;;;;14.52;64.16;100857.03;10465137;28;20534;-88
2022/10/12 19:49:01;;;;;;;22.48;12.60;;;;;;;14.29;65.53;100869.63;10453257;28;20067;-88
2022/10/12 19:54:04;;;;;;;26.08;13.00;;;;;;;14.17;65.61;100865.72;10463342;28;20056;-88
2022/10/12 19:59:06;;;;;;;25.70;14.40;;;;;;;14.19;65.20;100870.97;10451876;28;20041;-89
2022/10/12 20:04:10;;;;;;;27.70;15.30;;;;;;;14.09;65.20;100877.47;10458808;28;20071;-90
2022/10/12 20:09:12;;;;;;;28.08;15.05;;;;;;;13.92;65.78;100878.69;10457669;28;20038;-89
2022/10/12 20:14:14;;;;;;;23.30;14.55;;;;;;;13.92;65.95;100876.00;10485600;28;20044;-91
2022/10/12 20:19:16;;;;;;;27.15;15.63;;;;;;;13.88;65.68;100872.81;10472831;28;20044;-91
2022/10/12 20:24:18;;;;;;;27.20;14.88;;;;;;;13.82;65.95;100876.25;10467365;28;20029;-89
2022/10/12 20:29:20;;;;;;;23.92;14.60;;;;;;;13.75;65.77;100874.47;10464247;28;20033;-90
2022/10/12 20:34:22;;;;;;;31.85;16.00;;;;;;;13.67;65.77;100862.72;10457769;28;20112;-89
2022/10/12 20:39:23;;;;;;;29.70;15.38;;;;;;;13.63;66.09;100876.78;10469075;28;20100;-91
2022/10/12 20:44:25;;;;;;;26.70;15.60;;;;;;;13.56;66.26;100876.66;10473467;28;20060;-90
2022/10/12 20:49:27;;;;;;;25.20;14.52;;;;;;;13.48;66.49;100866.75;10472260;28;20514;-89
2022/10/12 20:54:31;;;;;;;23.42;14.57;;;;;;;13.45;66.34;100863.59;10472542;28;20044;-90
2022/10/12 20:59:35;;;;;;;24.45;14.43;;;;;;;13.42;66.48;100869.34;10456266;28;20045;-89
2022/10/12 21:04:37;;;;;;;27.02;14.43;;;;;;;13.25;66.69;100874.00;10464930;28;20104;-89
2022/10/12 21:09:39;;;;;;;23.70;14.38;;;;;;;13.22;66.98;100882.50;10439490;28;20105;-89
2022/10/12 21:14:40;;;;;;;24.75;14.13;;;;;;;13.06;67.09;100880.75;10437543;28;20053;-90
2022/10/12 21:19:42;;;;;;;25.35;13.77;;;;;;;13.03;67.00;100887.34;10435803;28;20064;-89
2022/10/12 21:24:43;;;;;;;24.30;13.93;;;;;;;12.96;66.86;100863.94;10462853;28;20075;-90
2022/10/12 21:29:45;;;;;;;26.30;14.38;;;;;;;12.89;66.88;100869.19;10448803;28;20052;-88
2022/10/12 21:34:47;;;;;;;28.05;16.15;;;;;;;12.80;67.09;100873.81;10455721;28;20518;-89
2022/10/12 21:39:48;;;;;;;23.48;12.13;;;;;;;12.72;67.16;100867.63;10454960;28;20049;-89
2022/10/12 21:44:54;;;;;;;19.83;12.73;;;;;;;12.66;67.06;100870.03;10460437;28;20071;-89
2022/10/12 21:49:56;;;;;;;26.38;13.07;;;;;;;12.56;67.24;100857.75;10490964;28;20075;-90
2022/10/12 21:54:58;;;;;;;24.67;11.98;;;;;;;12.46;66.85;100858.84;10468708;28;20570;-89
2022/10/12 21:59:59;;;;;;;22.92;11.82;;;;;;;12.39;67.44;100860.53;10460213;28;20041;-90
2022/10/12 22:05:01;;;;;;;20.02;10.70;;;;;;;12.28;67.32;100863.63;10477192;28;20108;-89
2022/10/12 22:10:03;;;;;;;22.65;11.38;;;;;;;12.17;67.67;100855.94;10464550;28;20056;-90
2022/10/12 22:15:06;;;;;;;24.83;12.45;;;;;;;12.14;67.57;100850.88;10435886;28;20049;-90
2022/10/12 22:20:08;;;;;;;17.90;10.77;;;;;;;12.07;67.65;100851.56;10463536;28;20057;-90
2022/10/12 22:25:10;;;;;;;18.50;11.95;;;;;;;12.00;67.71;100841.66;10435514;28;20045;-90
2022/10/12 22:30:12;;;;;;;24.67;12.27;;;;;;;11.91;67.70;100846.25;10472871;22;20046;-71
2022/10/12 22:35:13;;;;;;;22.65;12.23;;;;;;;11.83;67.90;100848.94;10976437;22;20037;-90
2022/10/12 22:40:15;;;;;;;18.25;11.40;;;;;;;11.74;67.74;100860.72;10425562;28;20061;-88
2022/10/12 22:45:16;;;;;;;19.85;11.50;;;;;;;11.65;68.00;100862.56;10422800;28;20430;-87
2022/10/12 22:50:18;;;;;;;22.98;11.57;;;;;;;11.55;68.15;100856.53;10422703;28;20045;-88
2022/10/12 22:55:20;;;;;;;22.70;10.82;;;;;;;11.47;68.09;100862.75;10423723;28;20045;-88
2022/10/12 23:00:22;;;;;;;22.80;11.88;;;;;;;11.44;68.36;100852.34;10447721;28;20038;-89
2022/10/12 23:05:24;;;;;;;18.00;11.05;;;;;;;11.38;67.95;100847.63;10437726;28;20061;-89
2022/10/12 23:10:26;;;;;;;18.95;10.55;;;;;;;11.29;68.32;100853.03;10439385;28;20089;-89
2022/10/12 23:15:28;;;;;;;22.00;11.70;;;;;;;11.22;68.28;100852.00;10445328;28;20049;-91